createdAt,value
2022-09-12T00:00:06.928Z,6.97
2022-09-12T00:03:17.929Z,6.50
2022-09-12T00:06:09.655Z,8.57
2022-09-12T00:08:57.806Z,8.82
2022-09-12T00:11:46.497Z,11.40
2022-09-12T00:14:32.411Z,6.85
2022-09-12T00:17:53.412Z,9.98
2022-09-12T00:20:47.209Z,16.90
2022-09-12T00:23:33.516Z,8.40
2022-09-12T00:26:20.584Z,12.18
2022-09-12T00:30:11.716Z,8.07
2022-09-12T00:32:57.582Z,8.45
2022-09-12T00:35:54.961Z,9.90
2022-09-12T00:38:51.192Z,9.55
2022-09-12T00:41:59.099Z,10.48
2022-09-12T00:44:48.248Z,9.85
2022-09-12T00:47:36.349Z,10.23
2022-09-12T00:50:26.789Z,9.02
2022-09-12T00:53:12.647Z,10.13
2022-09-12T00:55:58.970Z,11.68
2022-09-12T00:59:00.909Z,8.93
2022-09-12T01:01:49.024Z,9.82
2022-09-12T01:04:37.547Z,9.43
2022-09-12T01:07:24.069Z,11.90
2022-09-12T01:10:10.844Z,9.45
2022-09-12T01:12:57.547Z,8.10
2022-09-12T01:15:43.305Z,9.07
2022-09-12T01:19:12.747Z,12.40
2022-09-12T01:22:48.318Z,11.70
2022-09-12T01:26:18.404Z,10.57
2022-09-12T01:29:34.201Z,7.28
2022-09-12T01:32:43.089Z,11.32
2022-09-12T01:36:08.813Z,9.57
2022-09-12T01:39:34.429Z,11.70
2022-09-12T01:43:12.593Z,13.90
2022-09-12T01:47:11.182Z,12.25
2022-09-12T01:50:07.558Z,9.35
2022-09-12T01:52:58.889Z,10.73
2022-09-12T01:56:06.580Z,11.32
2022-09-12T01:59:06.911Z,9.50
2022-09-12T02:02:06.275Z,11.95
2022-09-12T02:05:17.216Z,11.05
2022-09-12T02:08:06.155Z,10.57
2022-09-12T02:11:02.146Z,10.88
2022-09-12T02:14:07.225Z,12.57
2022-09-12T02:16:57.205Z,11.05
2022-09-12T02:20:08.374Z,9.55
2022-09-12T02:22:56.259Z,10.15
2022-09-12T02:25:43.580Z,10.70
2022-09-12T02:28:33.073Z,10.32
2022-09-12T02:31:36.044Z,8.98
2022-09-12T02:34:35.211Z,12.48
2022-09-12T02:37:25.992Z,9.90
2022-09-12T02:40:12.776Z,13.63
2022-09-12T02:42:58.952Z,13.50
2022-09-12T02:45:45.171Z,11.57
2022-09-12T02:48:34.729Z,10.77
2022-09-12T02:51:23.659Z,12.98
2022-09-12T02:54:10.446Z,11.90
2022-09-12T02:56:56.628Z,13.32
2022-09-12T02:59:42.764Z,11.70
2022-09-12T03:03:03.019Z,11.07
2022-09-12T03:06:03.004Z,14.15
2022-09-12T03:09:27.157Z,12.98
2022-09-12T03:12:24.234Z,12.40
2022-09-12T03:15:19.544Z,14.10
2022-09-12T03:18:31.903Z,18.42
2022-09-12T03:21:42.610Z,11.63
2022-09-12T03:24:38.077Z,16.58
2022-09-12T03:27:36.838Z,15.32
2022-09-12T03:30:22.883Z,13.30
2022-09-12T03:33:13.700Z,12.52
2022-09-12T03:35:59.818Z,15.68
2022-09-12T03:38:45.935Z,11.02
2022-09-12T03:41:31.810Z,14.45
2022-09-12T03:44:18.293Z,13.90
2022-09-12T03:47:06.965Z,17.70
2022-09-12T03:49:56.741Z,12.73
2022-09-12T03:52:42.680Z,13.18
2022-09-12T03:55:28.466Z,15.00
2022-09-12T03:58:14.320Z,16.80
2022-09-12T04:01:00.048Z,14.43
2022-09-12T04:03:48.196Z,12.13
2022-09-12T04:06:33.894Z,12.10
2022-09-12T04:09:19.643Z,13.05
2022-09-12T04:12:05.916Z,13.15
2022-09-12T04:14:51.462Z,16.63
2022-09-12T04:17:37.282Z,10.35
2022-09-12T04:20:23.232Z,15.48
2022-09-12T04:23:09.296Z,11.35
2022-09-12T04:25:56.354Z,20.40
2022-09-12T04:28:43.323Z,11.63
2022-09-12T04:31:30.923Z,14.57
2022-09-12T04:34:16.845Z,11.43
2022-09-12T04:37:14.012Z,12.23
2022-09-12T04:40:03.744Z,13.90
2022-09-12T04:42:49.726Z,11.80
2022-09-12T04:45:39.167Z,12.43
2022-09-12T04:48:25.506Z,13.68
2022-09-12T04:51:18.161Z,11.13
2022-09-12T04:54:07.870Z,14.82
2022-09-12T04:56:55.360Z,12.40
2022-09-12T04:59:41.333Z,14.48
2022-09-12T05:02:30.117Z,16.40
2022-09-12T05:05:17.569Z,15.40
2022-09-12T05:08:03.701Z,12.18
2022-09-12T05:10:49.552Z,10.55
2022-09-12T05:13:35.509Z,13.88
2022-09-12T05:16:22.034Z,23.08
2022-09-12T05:19:09.712Z,16.50
2022-09-12T05:21:56.302Z,13.85
2022-09-12T05:24:47.245Z,13.25
2022-09-12T05:27:36.029Z,13.40
2022-09-12T05:30:21.622Z,11.02
2022-09-12T05:33:07.205Z,14.13
2022-09-12T05:35:53.145Z,16.77
2022-09-12T05:38:39.408Z,11.55
2022-09-12T05:41:29.542Z,17.00
2022-09-12T05:44:15.581Z,13.02
2022-09-12T05:47:01.526Z,17.58
2022-09-12T05:49:49.127Z,10.75
2022-09-12T05:52:35.239Z,21.42
2022-09-12T05:55:21.296Z,24.00
2022-09-12T05:58:07.480Z,19.00
2022-09-12T06:00:53.295Z,15.65
2022-09-12T06:03:50.514Z,12.13
2022-09-12T06:06:41.876Z,12.30
2022-09-12T06:09:28.186Z,11.27
2022-09-12T06:12:14.219Z,13.85
2022-09-12T06:15:00.192Z,12.57
2022-09-12T06:17:50.786Z,12.13
2022-09-12T06:20:37.062Z,13.52
2022-09-12T06:23:23.189Z,12.30
2022-09-12T06:26:10.612Z,12.60
2022-09-12T06:28:58.442Z,9.18
2022-09-12T06:31:44.463Z,12.93
2022-09-12T06:34:31.537Z,11.70
2022-09-12T06:37:17.610Z,16.73
2022-09-12T06:40:03.568Z,13.65
2022-09-12T06:42:49.666Z,14.90
2022-09-12T06:45:51.232Z,16.17
2022-09-12T06:48:41.578Z,9.95
2022-09-12T06:51:29.120Z,11.48
2022-09-12T06:54:17.255Z,9.68
2022-09-12T06:57:03.526Z,11.73
2022-09-12T06:59:49.327Z,9.25
2022-09-12T07:02:34.943Z,11.88
2022-09-12T07:05:20.615Z,8.68
2022-09-12T07:08:06.374Z,10.25
2022-09-12T07:10:52.120Z,8.25
2022-09-12T07:13:39.514Z,9.38
2022-09-12T07:16:25.780Z,11.35
2022-09-12T07:19:12.201Z,9.32
2022-09-12T07:21:58.808Z,12.88
2022-09-12T07:24:45.877Z,14.13
2022-09-12T07:27:31.450Z,13.60
2022-09-12T07:30:17.834Z,12.48
2022-09-12T07:33:03.878Z,9.18
2022-09-12T07:35:49.883Z,9.77
2022-09-12T07:38:35.906Z,10.90
2022-09-12T07:41:29.576Z,16.02
2022-09-12T07:44:15.521Z,11.77
2022-09-12T07:47:02.027Z,12.20
2022-09-12T07:49:48.629Z,11.70
2022-09-12T07:52:34.434Z,12.77
2022-09-12T07:55:20.338Z,10.20
2022-09-12T07:58:06.489Z,8.77
2022-09-12T08:00:52.405Z,11.13
2022-09-12T08:03:39.198Z,15.98
2022-09-12T08:06:26.758Z,12.18
2022-09-12T08:09:13.052Z,16.55
2022-09-12T08:11:59.013Z,11.95
2022-09-12T08:14:44.811Z,45.95
2022-09-12T08:17:30.585Z,47.92
2022-09-12T08:20:18.079Z,45.63
2022-09-12T08:23:03.870Z,25.52
2022-09-12T08:25:50.202Z,33.78
2022-09-12T08:28:36.726Z,95.35
2022-09-12T08:31:24.646Z,16.73
2022-09-12T08:34:10.754Z,14.00
2022-09-12T08:36:56.728Z,10.13
2022-09-12T08:39:42.480Z,23.02
2022-09-12T08:43:14.647Z,13.75
2022-09-12T08:46:40.074Z,9.07
2022-09-12T08:49:31.110Z,16.55
2022-09-12T08:52:24.281Z,18.58
2022-09-12T08:55:22.406Z,7.63
2022-09-12T08:58:22.737Z,15.07
2022-09-12T09:01:11.890Z,13.77
2022-09-12T09:04:34.484Z,26.38
2022-09-12T09:07:38.694Z,7.32
2022-09-12T09:10:27.336Z,10.80
2022-09-12T09:13:44.207Z,19.80
2022-09-12T09:16:31.537Z,9.07
2022-09-12T09:19:25.742Z,12.15
2022-09-12T09:22:33.844Z,3.05
2022-09-12T09:25:23.943Z,9.60
2022-09-12T09:28:37.820Z,5.13
2022-09-12T09:31:25.917Z,3.70
2022-09-12T09:34:34.307Z,3.28
2022-09-12T09:37:36.538Z,3.75
2022-09-12T09:40:58.293Z,2.03
2022-09-12T09:43:44.164Z,12.93
2022-09-12T09:46:30.426Z,9.68
2022-09-12T09:49:17.765Z,7.30
2022-09-12T09:52:06.593Z,3.08
2022-09-12T09:54:57.490Z,10.82
2022-09-12T09:57:46.642Z,6.82
2022-09-12T10:00:37.177Z,4.85
2022-09-12T10:03:29.025Z,4.43
2022-09-12T10:06:20.979Z,2.97
2022-09-12T10:09:18.840Z,3.33
2022-09-12T10:12:30.618Z,6.32
2022-09-12T10:15:21.035Z,2.80
2022-09-12T10:18:07.256Z,5.18
2022-09-12T10:20:53.463Z,32.42
2022-09-12T10:23:41.260Z,14.55
2022-09-12T10:26:33.062Z,11.98
2022-09-12T10:29:31.688Z,7.63
2022-09-12T10:32:31.298Z,7.03
2022-09-12T10:35:21.515Z,7.13
2022-09-12T10:38:22.630Z,4.72
2022-09-12T10:41:10.414Z,7.80
2022-09-12T10:44:07.683Z,4.85
2022-09-12T10:46:54.595Z,2.50
2022-09-12T10:49:41.419Z,8.77
2022-09-12T10:52:28.560Z,8.60
2022-09-12T10:55:15.805Z,3.13
2022-09-12T10:58:14.589Z,2.60
2022-09-12T11:01:25.576Z,7.28
2022-09-12T11:04:14.182Z,11.13
2022-09-12T11:07:15.147Z,4.40
2022-09-12T11:10:03.916Z,40.75
2022-09-12T11:13:14.773Z,7.30
2022-09-12T11:16:14.309Z,4.30
2022-09-12T11:19:41.667Z,6.18
2022-09-12T11:22:43.754Z,8.20
2022-09-12T11:25:43.417Z,10.35
2022-09-12T11:28:48.040Z,2.60
2022-09-12T11:31:40.154Z,9.15
2022-09-12T11:34:33.455Z,2.95
2022-09-12T11:37:43.907Z,5.80
2022-09-12T11:40:40.895Z,2.97
2022-09-12T11:43:35.489Z,5.85
2022-09-12T11:46:22.961Z,5.05
2022-09-12T11:49:15.712Z,8.13
2022-09-12T11:52:11.350Z,5.13
2022-09-12T11:55:18.907Z,5.07
2022-09-12T11:58:05.279Z,6.30
2022-09-12T12:00:55.176Z,7.63
2022-09-12T12:03:46.805Z,5.60
2022-09-12T12:06:41.068Z,7.32
2022-09-12T12:09:27.059Z,8.55
2022-09-12T12:12:17.706Z,9.55
2022-09-12T12:15:03.929Z,11.95
2022-09-12T12:18:04.684Z,9.20
2022-09-12T12:20:51.410Z,3.53
2022-09-12T12:23:37.649Z,12.95
2022-09-12T12:26:47.489Z,13.93
2022-09-12T12:29:44.634Z,7.25
2022-09-12T12:32:30.626Z,5.60
2022-09-12T12:35:54.191Z,16.55
2022-09-12T12:38:44.512Z,7.70
2022-09-12T12:41:36.763Z,3.03
2022-09-12T12:44:44.328Z,8.70
2022-09-12T12:47:36.117Z,2.40
2022-09-12T12:50:27.289Z,2.08
2022-09-12T12:53:17.609Z,10.43
2022-09-12T12:56:03.643Z,7.35
2022-09-12T12:58:49.391Z,6.30
2022-09-12T13:01:41.363Z,7.70
2022-09-12T13:04:29.708Z,12.55
2022-09-12T13:07:26.106Z,6.55
2022-09-12T13:10:23.585Z,3.30
2022-09-12T13:13:09.850Z,3.78
2022-09-12T13:15:55.683Z,4.25
2022-09-12T13:18:54.551Z,6.90
2022-09-12T13:22:03.394Z,7.03
2022-09-12T13:24:52.186Z,6.68
2022-09-12T13:27:38.362Z,4.45
2022-09-12T13:30:24.297Z,3.65
2022-09-12T13:33:16.801Z,2.05
2022-09-12T13:39:21.451Z,4.43
2022-09-12T13:42:22.564Z,8.43
2022-09-12T13:45:27.570Z,10.95
2022-09-12T13:48:24.327Z,3.65
2022-09-12T13:51:21.977Z,54.58
2022-09-12T13:54:07.876Z,64.20
2022-09-12T13:56:53.928Z,31.42
2022-09-12T13:59:41.046Z,40.97
2022-09-12T14:02:29.186Z,16.38
2022-09-12T14:05:24.255Z,15.45
2022-09-12T14:08:12.068Z,10.90
2022-09-12T14:10:58.391Z,5.15
2022-09-12T14:13:44.220Z,10.43
2022-09-12T14:16:31.380Z,16.30
2022-09-12T14:19:18.610Z,7.07
2022-09-12T14:22:04.610Z,6.25
2022-09-12T14:24:51.661Z,7.78
2022-09-12T14:27:48.042Z,22.10
2022-09-12T14:30:37.599Z,20.67
2022-09-12T14:33:23.694Z,15.43
2022-09-12T14:36:12.695Z,14.00
2022-09-12T14:39:06.491Z,23.70
2022-09-12T14:42:02.144Z,11.30
2022-09-12T14:45:00.477Z,5.20
2022-09-12T14:47:49.972Z,3.53
2022-09-12T14:50:36.237Z,4.55
2022-09-12T14:53:32.593Z,8.25
2022-09-12T14:56:22.303Z,12.32
2022-09-12T14:59:26.888Z,11.50
2022-09-12T15:02:21.954Z,9.45
2022-09-12T15:05:07.776Z,8.55
2022-09-12T15:08:01.065Z,5.05
2022-09-12T15:10:47.135Z,8.80
2022-09-12T15:13:39.815Z,4.95
2022-09-12T15:16:26.050Z,8.77
2022-09-12T15:19:12.194Z,3.55
2022-09-12T15:21:58.101Z,5.00
2022-09-12T15:24:44.956Z,5.53
2022-09-12T15:27:31.179Z,4.10
2022-09-12T15:30:17.189Z,5.85
2022-09-12T15:33:03.207Z,5.80
2022-09-12T15:35:49.021Z,4.10
2022-09-12T15:38:34.988Z,5.90
2022-09-12T15:41:23.574Z,8.45
2022-09-12T15:44:13.319Z,5.55
2022-09-12T15:46:59.298Z,4.72
2022-09-12T15:49:46.259Z,8.20
2022-09-12T15:52:32.144Z,14.73
2022-09-12T15:55:19.831Z,10.70
2022-09-12T15:58:07.324Z,3.63
2022-09-12T16:00:53.637Z,6.90
2022-09-12T16:03:39.755Z,5.20
2022-09-12T16:06:25.804Z,5.70
2022-09-12T16:09:16.567Z,6.97
2022-09-12T16:12:02.851Z,5.45
2022-09-12T16:14:48.773Z,9.60
2022-09-12T16:17:34.866Z,5.57
2022-09-12T16:20:22.220Z,10.60
2022-09-12T16:23:13.352Z,5.20
2022-09-12T16:26:05.026Z,6.95
2022-09-12T16:28:58.405Z,7.28
2022-09-12T16:31:45.459Z,7.85
2022-09-12T16:34:31.441Z,4.25
2022-09-12T16:37:18.127Z,6.18
2022-09-12T16:40:05.393Z,12.52
2022-09-12T16:42:51.168Z,5.55
2022-09-12T16:45:37.004Z,8.30
2022-09-12T16:48:22.746Z,10.45
2022-09-12T16:51:08.518Z,8.38
2022-09-12T16:53:55.515Z,5.80
2022-09-12T16:56:42.517Z,9.02
2022-09-12T16:59:28.298Z,22.30
2022-09-12T17:02:14.179Z,54.95
2022-09-12T17:05:00.243Z,50.95
2022-09-12T17:07:46.175Z,118.40
2022-09-12T17:10:32.763Z,76.22
2022-09-12T17:13:18.641Z,55.00
2022-09-12T17:16:11.697Z,35.60
2022-09-12T17:18:58.712Z,23.42
2022-09-12T17:21:47.133Z,27.65
2022-09-12T17:24:33.173Z,15.70
2022-09-12T17:27:19.323Z,14.32
2022-09-12T17:30:05.756Z,27.48
2022-09-12T17:32:52.433Z,13.70
2022-09-12T17:35:38.945Z,18.10
2022-09-12T17:38:25.411Z,16.23
2022-09-12T17:41:17.847Z,23.60
2022-09-12T17:44:07.394Z,16.55
2022-09-12T17:46:53.191Z,18.27
2022-09-12T17:49:40.660Z,21.25
2022-09-12T17:52:27.622Z,18.58
2022-09-12T17:55:15.208Z,30.30
2022-09-12T17:58:01.050Z,14.80
2022-09-12T18:01:05.824Z,16.10
2022-09-12T18:03:56.744Z,17.95
2022-09-12T18:06:48.160Z,15.52
2022-09-12T18:09:34.445Z,15.73
2022-09-12T18:12:20.483Z,12.95
2022-09-12T18:15:07.168Z,18.38
2022-09-12T18:17:53.884Z,25.63
2022-09-12T18:20:40.105Z,23.27
2022-09-12T18:23:27.040Z,20.27
2022-09-12T18:26:13.570Z,23.13
2022-09-12T18:28:59.713Z,24.58
2022-09-12T18:31:49.618Z,14.40
2022-09-12T18:34:35.777Z,14.73
2022-09-12T18:37:22.076Z,12.85
2022-09-12T18:40:09.263Z,11.85
2022-09-12T18:42:55.525Z,14.57
2022-09-12T18:45:41.293Z,21.05
2022-09-12T18:48:27.387Z,11.95
2022-09-12T18:51:17.973Z,17.33
2022-09-12T18:54:06.666Z,15.75
2022-09-12T18:56:52.742Z,13.90
2022-09-12T18:59:38.749Z,17.15
2022-09-12T19:02:28.111Z,16.08
2022-09-12T19:05:13.946Z,12.20
2022-09-12T19:08:00.047Z,15.98
2022-09-12T19:10:45.973Z,9.30
2022-09-12T19:13:32.205Z,10.48
2022-09-12T19:16:20.657Z,9.65
2022-09-12T19:19:06.808Z,9.40
2022-09-12T19:21:52.802Z,12.57
2022-09-12T19:24:38.841Z,9.05
2022-09-12T19:27:24.621Z,13.02
2022-09-12T19:30:11.005Z,18.45
2022-09-12T19:32:57.232Z,9.38
2022-09-12T19:35:43.257Z,16.90
2022-09-12T19:38:29.336Z,17.25
2022-09-12T19:41:15.399Z,13.27
2022-09-12T19:44:01.551Z,10.68
2022-09-12T19:46:47.911Z,9.27
2022-09-12T19:49:34.014Z,14.35
2022-09-12T19:52:19.896Z,18.02
2022-09-12T19:55:06.422Z,13.38
2022-09-12T19:57:52.688Z,18.42
2022-09-12T20:00:38.923Z,12.50
2022-09-12T20:03:25.087Z,7.82
2022-09-12T20:06:17.356Z,15.32
2022-09-12T20:09:03.527Z,9.02
2022-09-12T20:11:49.830Z,11.55
2022-09-12T20:14:35.949Z,16.73
2022-09-12T20:17:22.193Z,14.88
2022-09-12T20:20:11.357Z,9.52
2022-09-12T20:22:57.531Z,9.98
2022-09-12T20:25:43.424Z,14.10
2022-09-12T20:28:29.590Z,6.97
2022-09-12T20:31:16.626Z,13.15
2022-09-12T20:34:03.459Z,10.57
2022-09-12T20:36:49.496Z,12.27
2022-09-12T20:39:35.691Z,11.38
2022-09-12T20:42:21.685Z,16.70
2022-09-12T20:45:07.790Z,8.43
2022-09-12T20:47:53.659Z,8.93
2022-09-12T20:50:39.566Z,8.25
2022-09-12T20:53:25.613Z,14.32
2022-09-12T20:56:12.663Z,12.35
2022-09-12T20:58:59.382Z,11.93
2022-09-12T21:01:45.424Z,13.35
2022-09-12T21:04:31.574Z,12.27
2022-09-12T21:07:17.499Z,7.25
2022-09-12T21:10:03.885Z,9.10
2022-09-12T21:12:49.796Z,11.90
2022-09-12T21:15:37.134Z,9.68
2022-09-12T21:18:23.752Z,8.50
2022-09-12T21:21:14.204Z,10.25
2022-09-12T21:24:02.761Z,6.28
2022-09-12T21:26:51.096Z,8.93
2022-09-12T21:29:37.134Z,10.38
2022-09-12T21:32:23.152Z,15.50
2022-09-12T21:35:09.292Z,10.73
2022-09-12T21:37:55.427Z,11.55
2022-09-12T21:40:45.360Z,12.15
2022-09-12T21:43:31.164Z,19.40
2022-09-12T21:46:16.964Z,29.45
2022-09-12T21:49:03.355Z,15.77
2022-09-12T21:51:51.009Z,10.85
2022-09-12T21:54:37.048Z,10.40
2022-09-12T21:57:22.863Z,9.77
2022-09-12T22:00:14.122Z,10.25
2022-09-12T22:03:00.181Z,10.13
2022-09-12T22:05:51.346Z,12.88
2022-09-12T22:08:38.841Z,11.60
2022-09-12T22:11:24.644Z,6.63
2022-09-12T22:14:11.185Z,7.60
2022-09-12T22:16:57.323Z,7.72
2022-09-12T22:19:43.067Z,14.55
2022-09-12T22:22:47.474Z,7.15
2022-09-12T22:25:33.654Z,8.93
2022-09-12T22:28:19.772Z,16.95
2022-09-12T22:31:06.977Z,7.05
2022-09-12T22:33:57.262Z,13.77
2022-09-12T22:36:43.210Z,10.48
2022-09-12T22:39:29.123Z,7.93
2022-09-12T22:42:15.367Z,5.47
2022-09-12T22:45:01.883Z,7.72
2022-09-12T22:47:48.069Z,7.97
2022-09-12T22:50:34.284Z,10.57
2022-09-12T22:53:20.167Z,6.22
2022-09-12T22:56:07.098Z,7.80
2022-09-12T22:58:53.146Z,5.07
2022-09-12T23:01:38.859Z,8.98
2022-09-12T23:04:24.695Z,6.75
2022-09-12T23:07:11.112Z,6.45
2022-09-12T23:09:57.004Z,5.00
2022-09-12T23:12:42.778Z,5.60
2022-09-12T23:15:28.538Z,4.72
2022-09-12T23:18:14.262Z,10.13
2022-09-12T23:21:04.500Z,13.98
2022-09-12T23:23:50.832Z,5.03
2022-09-12T23:26:37.023Z,9.18
2022-09-12T23:29:22.787Z,6.18
2022-09-12T23:32:08.732Z,8.27
2022-09-12T23:34:54.665Z,5.65
2022-09-12T23:37:40.433Z,5.80
2022-09-12T23:40:26.345Z,5.70
2022-09-12T23:43:12.370Z,12.32
2022-09-12T23:45:59.108Z,4.28
2022-09-12T23:48:45.235Z,7.57
2022-09-12T23:51:31.460Z,4.72
2022-09-12T23:54:17.201Z,7.78
2022-09-12T23:57:02.985Z,2.97
2022-09-12T23:59:48.726Z,3.72
